Time;durP1;ratioP1;P1;durP2;ratioP2;P2;SDS_P1;SDS_P2;PMS_P1;PMS_P2;Temp;Humidity;BMP_temperature;BMP_pressure;BME280_temperature;BME280_humidity;BME280_pressure;Samples;Min_cycle;Max_cycle;Signal;HPM_P1;HPM_P2
2022/07/22 00:00:20;;;;;;;17.73;15.60;;;;;;;17.09;85.67;96485.50;2056838;28;20055;-37
2022/07/22 00:01:21;;;;;;;17.05;15.27;;;;;;;17.07;85.61;96482.13;2064547;28;20039;-36
2022/07/22 00:02:23;;;;;;;18.48;16.33;;;;;;;17.05;86.09;96481.38;2072562;28;20042;-40
2022/07/22 00:03:24;;;;;;;17.85;16.05;;;;;;;17.03;86.12;96478.03;2064234;28;20050;-37
2022/07/22 00:04:25;;;;;;;20.00;15.95;;;;;;;16.99;85.93;96472.13;2056831;28;20043;-36
2022/07/22 00:05:26;;;;;;;18.63;16.23;;;;;;;16.97;85.71;96474.88;2056375;28;20093;-37
2022/07/22 00:06:28;;;;;;;19.58;16.02;;;;;;;16.95;86.56;96473.28;2056559;28;20042;-36
2022/07/22 00:07:29;;;;;;;17.15;14.82;;;;;;;16.93;86.09;96472.53;2048775;28;20424;-39
2022/07/22 00:08:31;;;;;;;19.05;16.23;;;;;;;16.90;86.22;96470.94;2056469;28;20050;-37
2022/07/22 00:09:33;;;;;;;17.60;15.35;;;;;;;16.89;86.09;96474.53;2064474;28;20042;-39
2022/07/22 00:10:34;;;;;;;18.33;15.93;;;;;;;16.87;87.07;96468.53;2041191;29;20411;-38
2022/07/22 00:11:35;;;;;;;18.33;16.38;;;;;;;16.85;87.05;96470.41;2041400;28;20047;-39
2022/07/22 00:12:37;;;;;;;21.85;16.35;;;;;;;16.84;87.23;96468.75;2072390;28;20064;-38
2022/07/22 00:13:38;;;;;;;18.05;16.17;;;;;;;16.82;86.63;96469.78;2072864;28;20088;-38
2022/07/22 00:14:40;;;;;;;19.13;16.48;;;;;;;16.81;86.15;96468.06;2064973;28;20054;-38
2022/07/22 00:15:41;;;;;;;19.80;16.80;;;;;;;16.79;87.05;96464.72;2064626;28;20073;-38
2022/07/22 00:16:42;;;;;;;18.33;16.45;;;;;;;16.76;86.91;96460.50;2080695;28;20053;-37
2022/07/22 00:17:43;;;;;;;19.70;16.45;;;;;;;16.73;86.89;96464.16;2056274;28;20605;-37
2022/07/22 00:18:45;;;;;;;19.45;16.80;;;;;;;16.71;87.10;96460.78;2056928;28;20058;-36
2022/07/22 00:19:46;;;;;;;19.27;17.25;;;;;;;16.70;86.55;96456.47;2072459;28;20062;-39
2022/07/22 00:20:47;;;;;;;18.08;16.17;;;;;;;16.70;86.77;96466.13;2072760;28;20054;-37
2022/07/22 00:21:48;;;;;;;20.27;16.73;;;;;;;16.70;87.85;96460.88;2072327;28;20052;-35
2022/07/22 00:22:49;;;;;;;21.05;17.73;;;;;;;16.67;87.47;96471.56;2064920;28;20069;-37
2022/07/22 00:23:51;;;;;;;18.83;16.63;;;;;;;16.66;87.30;96468.09;2064668;28;20058;-39
2022/07/22 00:24:52;;;;;;;20.98;17.02;;;;;;;16.66;87.01;96460.22;2056488;28;20069;-39
2022/07/22 00:25:53;;;;;;;21.33;17.33;;;;;;;16.67;86.83;96461.06;2048137;29;20059;-36
2022/07/22 00:26:54;;;;;;;19.35;16.92;;;;;;;16.66;87.15;96462.03;2056714;28;20054;-39
2022/07/22 00:27:56;;;;;;;21.52;17.63;;;;;;;16.64;86.96;96464.72;2056312;28;20053;-39
2022/07/22 00:28:57;;;;;;;21.20;15.95;;;;;;;16.64;87.71;96466.50;2064544;28;20061;-38
2022/07/22 00:29:58;;;;;;;23.40;17.23;;;;;;;16.63;87.37;96456.97;2072322;28;20045;-40
2022/07/22 00:31:00;;;;;;;19.40;16.80;;;;;;;16.62;87.19;96463.13;2080373;28;20041;-34
2022/07/22 00:32:02;;;;;;;19.35;17.30;;;;;;;16.61;86.78;96464.94;2063966;28;20187;-36
2022/07/22 00:33:03;;;;;;;23.17;16.95;;;;;;;16.61;86.91;96464.09;2065214;28;20043;-38
2022/07/22 00:34:05;;;;;;;18.90;16.85;;;;;;;16.59;86.19;96456.31;2080528;28;20041;-36
2022/07/22 00:35:07;;;;;;;23.35;18.05;;;;;;;16.61;86.95;96456.22;2080517;28;20515;-37
2022/07/22 00:36:08;;;;;;;19.33;17.15;;;;;;;16.61;86.77;96461.47;2080095;28;20100;-40
2022/07/22 00:37:10;;;;;;;21.70;16.73;;;;;;;16.60;87.01;96460.63;2080946;28;20060;-37
2022/07/22 00:38:11;;;;;;;19.90;17.63;;;;;;;16.60;86.74;96459.75;2080063;28;20046;-39
2022/07/22 00:39:12;;;;;;;22.05;16.67;;;;;;;16.58;87.11;96459.88;2080784;28;20052;-37
2022/07/22 00:40:13;;;;;;;20.23;17.50;;;;;;;16.57;87.22;96454.72;2072811;28;20045;-38
2022/07/22 00:41:15;;;;;;;21.75;17.98;;;;;;;16.53;87.51;96467.19;2057047;28;20062;-40
2022/07/22 00:42:16;;;;;;;19.45;17.17;;;;;;;16.49;87.63;96453.44;2056327;28;20050;-38
2022/07/22 00:43:17;;;;;;;22.52;17.67;;;;;;;16.49;87.75;96457.84;2072867;28;20053;-39
2022/07/22 00:44:18;;;;;;;21.77;17.50;;;;;;;16.49;87.88;96452.59;2073201;28;20091;-36
2022/07/22 00:45:19;;;;;;;20.00;17.63;;;;;;;16.47;87.65;96459.72;2079989;28;20068;-37
2022/07/22 00:46:21;;;;;;;19.15;17.27;;;;;;;16.44;87.33;96455.53;2080497;28;20056;-36
2022/07/22 00:47:22;;;;;;;22.10;19.00;;;;;;;16.39;88.53;96460.22;2056220;28;20043;-33
2022/07/22 00:48:23;;;;;;;21.35;18.73;;;;;;;16.37;88.48;96456.84;2056102;28;20050;-37
2022/07/22 00:49:24;;;;;;;21.65;19.35;;;;;;;16.35;88.78;96456.09;2057139;28;20042;-36
2022/07/22 00:50:26;;;;;;;20.85;18.65;;;;;;;16.33;88.82;96457.94;2041319;28;20047;-37
2022/07/22 00:51:27;;;;;;;20.63;18.38;;;;;;;16.30;88.95;96452.91;2064266;28;20057;-39
2022/07/22 00:52:29;;;;;;;22.02;19.65;;;;;;;16.29;89.51;96456.47;2079799;28;20033;-36
2022/07/22 00:53:30;;;;;;;25.15;20.48;;;;;;;16.28;90.36;96462.66;2080764;28;20124;-38
2022/07/22 00:54:32;;;;;;;21.80;19.50;;;;;;;16.25;90.78;96462.84;2071946;28;20097;-38
2022/07/22 00:55:34;;;;;;;24.40;21.05;;;;;;;16.23;91.31;96455.09;2072063;28;20038;-35
2022/07/22 00:56:36;;;;;;;22.27;19.90;;;;;;;16.21;90.61;96450.88;2072272;28;20042;-38
2022/07/22 00:57:38;;;;;;;22.63;19.40;;;;;;;16.17;90.67;96450.25;2071902;28;20049;-38
2022/07/22 00:58:39;;;;;;;22.13;19.45;;;;;;;16.18;90.42;96454.53;2080110;28;20033;-37
2022/07/22 00:59:40;;;;;;;22.33;19.92;;;;;;;16.14;90.73;96457.44;2064750;28;20134;-36
2022/07/22 01:00:43;;;;;;;21.02;18.83;;;;;;;16.10;90.53;96452.38;2056897;28;20055;-36
2022/07/22 01:01:44;;;;;;;29.88;19.42;;;;;;;16.08;90.48;96458.66;2055891;28;20097;-42
2022/07/22 01:02:46;;;;;;;23.20;19.20;;;;;;;16.05;90.54;96449.19;2047973;28;20056;-37
2022/07/22 01:03:47;;;;;;;23.73;19.33;;;;;;;16.02;89.63;96454.63;2064738;28;20057;-37
2022/07/22 01:04:48;;;;;;;20.63;18.52;;;;;;;15.98;89.42;96453.13;2073048;28;20100;-36
2022/07/22 01:05:49;;;;;;;22.58;18.58;;;;;;;15.95;89.37;96455.09;2064596;28;20057;-37
2022/07/22 01:06:50;;;;;;;21.52;19.23;;;;;;;15.91;89.35;96458.88;2048429;29;20051;-39
2022/07/22 01:07:52;;;;;;;20.17;18.08;;;;;;;15.88;89.53;96459.88;2048774;28;20058;-38
2022/07/22 01:08:54;;;;;;;20.95;18.42;;;;;;;15.82;89.54;96452.38;2064304;28;20050;-39
2022/07/22 01:09:56;;;;;;;23.80;19.33;;;;;;;15.80;90.18;96451.66;2064442;28;20054;-39
2022/07/22 01:11:16;;;;;;;20.80;18.58;;;;;;;15.74;89.35;96450.22;2055423;28;20043;-37
2022/07/22 01:12:17;;;;;;;21.90;18.48;;;;;;;15.73;89.67;96451.19;2061122;28;20055;-39
2022/07/22 01:13:18;;;;;;;21.15;18.48;;;;;;;15.71;89.24;96449.59;2064177;28;20049;-39
2022/07/22 01:14:19;;;;;;;23.40;18.92;;;;;;;15.70;89.27;96453.16;2072353;28;20049;-37
2022/07/22 01:15:21;;;;;;;21.92;19.52;;;;;;;15.69;89.40;96446.22;2080548;28;20450;-39
2022/07/22 01:16:22;;;;;;;26.75;21.05;;;;;;;15.68;89.57;96449.75;2063953;28;20137;-36
2022/07/22 01:17:24;;;;;;;21.80;19.48;;;;;;;15.66;89.50;96447.19;2056501;28;20534;-38
2022/07/22 01:18:25;;;;;;;21.95;19.63;;;;;;;15.63;89.81;96450.84;2072159;28;20057;-37
2022/07/22 01:19:27;;;;;;;23.20;19.77;;;;;;;15.61;90.00;96446.63;2079728;28;20045;-39
2022/07/22 01:20:28;;;;;;;22.88;19.55;;;;;;;15.57;89.78;96448.59;2064044;28;20053;-38
2022/07/22 01:21:29;;;;;;;27.67;20.83;;;;;;;15.53;90.25;96448.88;2071832;28;20045;-39
2022/07/22 01:22:31;;;;;;;24.73;20.85;;;;;;;15.52;90.32;96444.56;2056485;28;20050;-39
2022/07/22 01:23:32;;;;;;;23.35;19.88;;;;;;;15.51;90.19;96448.16;2055781;28;20059;-39
2022/07/22 01:24:34;;;;;;;22.60;20.13;;;;;;;15.51;90.12;96446.34;2056225;28;20531;-37
2022/07/22 01:25:35;;;;;;;25.40;20.27;;;;;;;15.50;90.31;96439.41;2063921;28;20512;-39
2022/07/22 01:26:37;;;;;;;23.92;20.98;;;;;;;15.50;90.48;96449.91;2071730;28;20046;-37
2022/07/22 01:27:39;;;;;;;24.08;21.48;;;;;;;15.48;89.82;96450.94;2063813;28;20046;-39
2022/07/22 01:28:40;;;;;;;21.92;19.50;;;;;;;15.47;89.93;96447.47;2064162;28;20046;-38
2022/07/22 01:29:42;;;;;;;23.88;21.30;;;;;;;15.49;90.94;96450.84;2063934;28;20046;-47
2022/07/22 01:30:43;;;;;;;24.45;21.27;;;;;;;15.48;90.47;96445.72;2048211;28;20505;-38
2022/07/22 01:31:44;;;;;;;25.75;20.98;;;;;;;15.40;90.60;96435.69;2056512;28;20050;-38
2022/07/22 01:32:46;;;;;;;23.50;20.13;;;;;;;15.43;91.00;96441.56;2064181;28;20489;-38
2022/07/22 01:33:47;;;;;;;26.42;20.20;;;;;;;15.46;90.02;96451.03;2056085;28;20130;-40
2022/07/22 01:34:48;;;;;;;24.67;21.65;;;;;;;15.45;90.38;96451.97;2063358;28;20050;-38
2022/07/22 01:35:51;;;;;;;23.80;20.05;;;;;;;15.43;90.81;96446.81;2071815;28;20046;-38
2022/07/22 01:36:52;;;;;;;25.17;21.70;;;;;;;15.42;90.83;96453.00;2056263;28;20054;-39
2022/07/22 01:37:53;;;;;;;22.83;20.52;;;;;;;15.42;90.30;96447.75;2063641;28;20049;-43
2022/07/22 01:38:54;;;;;;;26.10;21.35;;;;;;;15.41;90.53;96447.84;2064074;28;20050;-40
2022/07/22 01:39:56;;;;;;;27.08;21.23;;;;;;;15.40;91.05;96443.53;2040758;28;20047;-41
2022/07/22 01:40:58;;;;;;;24.33;21.73;;;;;;;15.40;90.65;96446.16;2064532;28;20050;-40
2022/07/22 01:42:01;;;;;;;27.10;22.27;;;;;;;15.38;91.40;96445.41;2063169;28;20042;-40
2022/07/22 01:43:03;;;;;;;23.63;20.85;;;;;;;15.37;91.40;96446.31;2056522;28;20404;-40
2022/07/22 01:44:04;;;;;;;24.67;21.95;;;;;;;15.35;90.60;96446.44;2055929;28;20154;-40
2022/07/22 01:45:06;;;;;;;26.92;21.23;;;;;;;15.35;91.27;96442.97;2047520;28;20055;-41
2022/07/22 01:46:08;;;;;;;22.83;20.38;;;;;;;15.34;90.65;96441.28;2064001;28;20049;-42
2022/07/22 01:47:13;;;;;;;24.27;21.60;;;;;;;15.32;91.17;96444.00;2063766;28;20061;-41
2022/07/22 01:48:14;;;;;;;24.63;21.23;;;;;;;15.32;91.24;96443.16;2064717;28;20516;-42
2022/07/22 01:49:16;;;;;;;26.27;20.90;;;;;;;15.31;90.76;96444.06;2064535;28;20412;-41
2022/07/22 01:50:18;;;;;;;25.15;20.08;;;;;;;15.30;91.64;96437.16;2056746;28;20062;-41
2022/07/22 01:51:19;;;;;;;26.13;21.05;;;;;;;15.30;91.10;96445.03;2063449;28;20058;-40
2022/07/22 01:52:20;;;;;;;24.98;21.15;;;;;;;15.28;91.28;96439.88;2063602;28;20491;-40
2022/07/22 01:53:22;;;;;;;23.45;20.92;;;;;;;15.28;91.44;96442.47;2047668;28;20048;-41
2022/07/22 01:54:23;;;;;;;26.05;21.25;;;;;;;15.28;91.65;96441.66;2048641;28;20051;-40
2022/07/22 01:55:24;;;;;;;25.65;21.35;;;;;;;15.26;91.82;96439.09;2063862;28;20046;-42
2022/07/22 01:56:25;;;;;;;23.38;20.45;;;;;;;15.25;91.79;96444.44;2064307;28;20421;-39
2022/07/22 01:57:27;;;;;;;23.83;20.25;;;;;;;15.25;91.60;96444.44;2056281;28;20046;-40
2022/07/22 01:58:29;;;;;;;26.40;21.27;;;;;;;15.25;91.65;96439.22;2048210;28;20429;-39
2022/07/22 01:59:31;;;;;;;23.52;20.98;;;;;;;15.24;91.59;96440.16;2048492;28;20043;-38
2022/07/22 02:00:37;;;;;;;26.13;21.35;;;;;;;15.25;91.81;96444.44;2057462;28;20046;-41
2022/07/22 02:01:38;;;;;;;26.35;21.35;;;;;;;15.25;91.35;96441.81;2063892;28;20042;-40
2022/07/22 02:02:40;;;;;;;23.00;19.77;;;;;;;15.25;91.99;96444.44;2047735;28;20102;-39
2022/07/22 02:03:41;;;;;;;23.73;21.23;;;;;;;15.21;92.16;96436.78;2047910;28;20043;-40
2022/07/22 02:04:43;;;;;;;24.88;19.75;;;;;;;15.21;91.88;96441.19;2063893;28;20053;-37
2022/07/22 02:05:45;;;;;;;24.00;21.45;;;;;;;15.19;92.03;96443.88;2063563;28;20050;-37
2022/07/22 02:06:59;;;;;;;23.27;19.77;;;;;;;15.17;91.96;96440.50;2072011;28;20053;-38
2022/07/22 02:08:03;;;;;;;23.08;20.63;;;;;;;15.16;92.08;96444.06;2071569;28;20046;-37
2022/07/22 02:09:08;;;;;;;26.95;22.27;;;;;;;15.16;91.93;96437.97;2072193;28;20045;-37
2022/07/22 02:10:15;;;;;;;26.30;22.70;;;;;;;15.13;92.44;96432.91;2074242;28;20046;-38
2022/07/22 02:11:17;;;;;;;26.23;21.38;;;;;;;15.13;92.90;96441.63;2073515;28;20093;-36
2022/07/22 02:12:25;;;;;;;24.85;22.25;;;;;;;15.12;92.94;96442.53;2066753;28;20054;-38
2022/07/22 02:13:26;;;;;;;26.42;22.27;;;;;;;15.10;92.30;96433.09;2058297;28;20046;-37
2022/07/22 02:14:27;;;;;;;24.50;21.92;;;;;;;15.09;92.22;96436.66;2057579;28;20554;-36
2022/07/22 02:15:29;;;;;;;25.88;21.80;;;;;;;15.08;92.57;96434.97;2057528;28;20066;-38
2022/07/22 02:16:34;;;;;;;26.58;21.42;;;;;;;15.07;92.63;96439.34;2066007;28;20041;-39
2022/07/22 02:17:36;;;;;;;24.10;21.13;;;;;;;15.08;93.39;96443.66;2065875;28;20046;-37
2022/07/22 02:18:37;;;;;;;25.15;20.50;;;;;;;15.06;92.79;96429.81;2057840;28;20069;-39
2022/07/22 02:19:38;;;;;;;28.27;23.60;;;;;;;15.06;93.29;96434.22;2042178;29;20051;-36
2022/07/22 02:20:40;;;;;;;27.65;22.50;;;;;;;15.04;92.79;96433.44;2050210;28;20043;-38
2022/07/22 02:21:41;;;;;;;23.75;21.02;;;;;;;15.04;93.24;96433.44;2057802;28;20054;-38
2022/07/22 02:22:42;;;;;;;24.80;21.77;;;;;;;15.02;93.51;96428.28;2056920;28;20047;-38
2022/07/22 02:23:44;;;;;;;26.30;22.20;;;;;;;15.02;93.02;96433.53;2065217;28;20046;-38
2022/07/22 02:24:46;;;;;;;25.98;23.23;;;;;;;14.99;93.15;96429.34;2050004;29;20047;-38
2022/07/22 02:25:48;;;;;;;25.58;22.83;;;;;;;15.02;93.39;96430.06;2057752;28;20046;-36
2022/07/22 02:26:49;;;;;;;30.27;23.65;;;;;;;15.02;93.42;96428.28;2072971;28;20558;-39
2022/07/22 02:27:50;;;;;;;26.27;21.52;;;;;;;15.05;92.79;96428.16;2057165;28;20062;-38
2022/07/22 02:28:52;;;;;;;26.83;22.13;;;;;;;15.11;92.86;96427.78;2057720;28;20061;-38
2022/07/22 02:29:53;;;;;;;23.85;21.35;;;;;;;15.16;92.92;96427.53;2070564;28;20045;-37
2022/07/22 02:30:54;;;;;;;27.45;22.35;;;;;;;15.14;92.89;96430.22;2065350;28;20409;-38
2022/07/22 02:31:55;;;;;;;27.95;21.83;;;;;;;15.13;92.30;96433.78;2057258;28;20050;-38
2022/07/22 02:32:57;;;;;;;26.45;23.20;;;;;;;15.11;93.07;96426.94;2057252;28;20047;-38
2022/07/22 02:33:59;;;;;;;27.67;22.10;;;;;;;15.11;93.04;96429.56;2050047;28;20047;-39
2022/07/22 02:35:03;;;;;;;26.83;22.48;;;;;;;15.10;93.18;96433.09;2051221;28;20070;-38
2022/07/22 02:36:05;;;;;;;24.80;22.13;;;;;;;15.08;93.17;96430.56;2065877;28;20050;-36
2022/07/22 02:37:08;;;;;;;25.15;22.40;;;;;;;15.07;92.74;96425.44;2057786;28;20462;-39
2022/07/22 02:38:09;;;;;;;25.23;22.60;;;;;;;15.06;93.11;96429.81;2057911;28;20050;-39
2022/07/22 02:39:12;;;;;;;27.65;23.00;;;;;;;15.05;92.83;96429.91;2065330;28;20062;-37
2022/07/22 02:40:14;;;;;;;27.98;23.23;;;;;;;15.05;93.16;96432.50;2065879;28;20447;-39
2022/07/22 02:41:16;;;;;;;29.67;23.88;;;;;;;15.04;92.92;96425.59;2073411;28;20050;-38
2022/07/22 02:42:24;;;;;;;26.85;22.88;;;;;;;15.04;93.06;96423.81;2065834;28;20417;-40
2022/07/22 02:43:27;;;;;;;29.23;23.65;;;;;;;15.03;92.53;96432.63;2057771;28;20049;-37
2022/07/22 02:44:29;;;;;;;28.65;22.77;;;;;;;15.04;92.73;96429.06;2057781;28;20042;-36
2022/07/22 02:45:30;;;;;;;26.10;22.17;;;;;;;15.05;92.43;96427.28;2072993;28;20096;-38
2022/07/22 02:46:32;;;;;;;25.35;22.65;;;;;;;15.03;92.76;96424.78;2057994;28;20452;-38
2022/07/22 02:47:47;;;;;;;26.35;22.95;;;;;;;15.02;92.63;96430.91;2066996;28;20050;-37
2022/07/22 02:48:48;;;;;;;26.90;22.80;;;;;;;15.02;92.92;96430.91;2058148;28;20051;-39
2022/07/22 02:49:52;;;;;;;28.67;24.08;;;;;;;15.00;92.90;96427.56;2058308;28;20524;-37
2022/07/22 02:50:54;;;;;;;27.33;24.23;;;;;;;14.97;92.48;96425.97;2057996;28;20081;-36
2022/07/22 02:51:59;;;;;;;27.52;24.30;;;;;;;14.94;92.94;96425.28;2057992;28;20174;-39
2022/07/22 02:53:00;;;;;;;27.73;24.75;;;;;;;14.92;92.36;96422.78;2066093;28;20050;-38
2022/07/22 02:54:06;;;;;;;27.25;23.38;;;;;;;14.91;93.06;96426.31;2065943;28;20419;-36
2022/07/22 02:55:07;;;;;;;27.73;24.70;;;;;;;14.90;93.12;96421.19;2064960;28;20046;-38
2022/07/22 02:56:09;;;;;;;28.60;24.02;;;;;;;14.88;92.97;96423.88;2065280;28;20050;-40
2022/07/22 02:57:10;;;;;;;28.25;24.33;;;;;;;14.87;93.14;96422.19;2056871;28;20452;-37
2022/07/22 02:58:11;;;;;;;30.55;25.83;;;;;;;14.87;93.58;96421.34;2049465;28;20547;-38
2022/07/22 02:59:16;;;;;;;30.48;25.10;;;;;;;14.87;93.47;96426.59;2057510;28;20054;-38
2022/07/22 03:00:17;;;;;;;29.38;25.70;;;;;;;14.86;93.84;96430.13;2065588;28;20429;-38
2022/07/22 03:01:20;;;;;;;28.63;25.52;;;;;;;14.86;93.70;96432.72;2072860;28;20037;-39
2022/07/22 03:02:27;;;;;;;27.48;24.55;;;;;;;14.83;93.57;96428.50;2073418;28;20042;-38
2022/07/22 03:03:28;;;;;;;28.80;25.70;;;;;;;14.83;93.48;96435.53;2058089;28;20051;-38
2022/07/22 03:04:30;;;;;;;29.90;26.27;;;;;;;14.77;93.68;96432.31;2057712;28;20393;-37
2022/07/22 03:05:31;;;;;;;31.98;27.13;;;;;;;14.79;93.63;96432.25;2073418;28;20050;-39
2022/07/22 03:06:48;;;;;;;31.80;26.63;;;;;;;14.77;94.18;96445.41;2081432;28;20053;-39
2022/07/22 03:07:53;;;;;;;35.35;28.67;;;;;;;14.75;93.62;96434.22;2065400;28;20057;-40
2022/07/22 03:08:55;;;;;;;33.67;28.73;;;;;;;14.71;93.47;96439.69;2065362;28;20122;-38
2022/07/22 03:09:57;;;;;;;31.73;27.58;;;;;;;14.70;93.36;96433.63;2058209;28;20141;-38
2022/07/22 03:10:58;;;;;;;36.08;28.90;;;;;;;14.69;94.33;96434.53;2065183;28;20135;-38
2022/07/22 03:11:59;;;;;;;33.53;28.08;;;;;;;14.69;94.17;96438.94;2064759;28;20050;-39
2022/07/22 03:13:01;;;;;;;31.70;27.52;;;;;;;14.67;94.27;96432.94;2065145;28;20054;-37
2022/07/22 03:14:02;;;;;;;35.08;28.52;;;;;;;14.63;94.71;96434.88;2065403;28;20497;-39
2022/07/22 03:15:04;;;;;;;35.28;28.60;;;;;;;14.63;94.65;96437.50;2073483;28;20050;-38
2022/07/22 03:16:08;;;;;;;33.20;27.92;;;;;;;14.62;93.97;96435.84;2057169;28;20054;-39
2022/07/22 03:17:11;;;;;;;35.00;28.50;;;;;;;14.60;94.47;96429.00;2050064;28;20062;-37
2022/07/22 03:18:13;;;;;;;32.00;28.08;;;;;;;14.58;94.39;96434.31;2057253;28;20452;-38
2022/07/22 03:19:15;;;;;;;33.05;28.25;;;;;;;14.56;94.32;96436.16;2064885;28;20543;-38
2022/07/22 03:20:20;;;;;;;33.08;28.67;;;;;;;14.51;94.75;96431.19;2073355;28;20038;-38
2022/07/22 03:21:23;;;;;;;36.55;28.77;;;;;;;14.48;95.09;96433.94;2072015;28;20042;-38
2022/07/22 03:22:26;;;;;;;33.10;29.05;;;;;;;14.46;94.96;96427.97;2065315;28;20050;-40
2022/07/22 03:23:28;;;;;;;35.65;28.42;;;;;;;14.44;95.02;96429.00;2072615;28;20050;-41
2022/07/22 03:24:31;;;;;;;32.03;27.73;;;;;;;14.44;95.27;96437.66;2081362;28;20056;-39
2022/07/22 03:25:34;;;;;;;34.42;30.40;;;;;;;14.44;95.03;96426.38;2073164;28;20049;-39
2022/07/22 03:26:35;;;;;;;33.53;28.70;;;;;;;14.43;95.27;96424.66;2065199;28;20039;-37
2022/07/22 03:27:37;;;;;;;31.27;27.17;;;;;;;14.42;94.75;96436.06;2049996;28;20514;-38
2022/07/22 03:28:38;;;;;;;38.05;30.58;;;;;;;14.40;94.92;96438.75;2049265;28;20513;-38
2022/07/22 03:29:39;;;;;;;35.70;29.13;;;;;;;14.40;94.65;96437.91;2048872;28;20043;-38
2022/07/22 03:30:41;;;;;;;31.42;26.73;;;;;;;14.38;95.43;96434.53;2049599;28;20051;-39
2022/07/22 03:31:42;;;;;;;36.72;29.13;;;;;;;14.38;95.30;96434.53;2042251;28;20062;-37
2022/07/22 03:32:46;;;;;;;36.47;30.27;;;;;;;14.36;94.91;96432.03;2056985;28;20042;-36
2022/07/22 03:33:48;;;;;;;35.97;29.52;;;;;;;14.34;94.68;96426.88;2080390;28;20586;-38
2022/07/22 03:34:50;;;;;;;37.65;31.10;;;;;;;14.37;94.68;96435.47;2057163;28;20047;-37
2022/07/22 03:35:51;;;;;;;37.08;30.08;;;;;;;14.37;94.70;96438.09;2057268;28;20058;-38
2022/07/22 03:36:53;;;;;;;37.03;29.77;;;;;;;14.35;94.94;96443.38;2064530;28;20054;-39
2022/07/22 03:37:54;;;;;;;37.35;30.58;;;;;;;14.32;94.71;96440.94;2056915;28;20043;-36
2022/07/22 03:38:57;;;;;;;34.85;30.33;;;;;;;14.30;94.57;96438.44;2064846;28;20411;-38
2022/07/22 03:39:58;;;;;;;34.22;29.02;;;;;;;14.31;95.08;96428.81;2064897;28;20054;-38
2022/07/22 03:41:00;;;;;;;35.05;30.63;;;;;;;14.31;95.06;96439.25;2065374;28;20050;-37
2022/07/22 03:42:01;;;;;;;38.28;31.63;;;;;;;14.29;95.42;96436.72;2056734;28;20521;-39
2022/07/22 03:43:04;;;;;;;36.83;31.65;;;;;;;14.28;94.91;96435.06;2065029;28;20038;-38
2022/07/22 03:44:06;;;;;;;39.25;32.08;;;;;;;14.30;95.54;96427.97;2064948;28;20046;-37
2022/07/22 03:45:09;;;;;;;35.15;30.75;;;;;;;14.31;94.86;96434.03;2072547;28;20098;-38
2022/07/22 03:46:13;;;;;;;36.67;30.73;;;;;;;14.31;95.34;96434.88;2065325;28;20042;-38
2022/07/22 03:47:18;;;;;;;36.17;30.83;;;;;;;14.33;95.19;96437.41;2057162;28;20049;-40
2022/07/22 03:48:21;;;;;;;38.75;33.25;;;;;;;14.32;94.77;96435.72;2066004;28;20045;-38
2022/07/22 03:49:22;;;;;;;39.97;34.20;;;;;;;14.32;95.45;96430.50;2072746;28;20045;-39
2022/07/22 03:50:24;;;;;;;41.45;35.72;;;;;;;14.32;95.28;96440.94;2072914;28;20049;-37
2022/07/22 03:51:25;;;;;;;41.30;35.35;;;;;;;14.32;95.77;96440.94;2072654;28;20048;-38
2022/07/22 03:52:28;;;;;;;42.70;34.40;;;;;;;14.32;95.46;96438.31;2064551;28;20440;-38
2022/07/22 03:53:32;;;;;;;41.35;33.83;;;;;;;14.32;95.47;96426.09;2064950;28;20053;-37
2022/07/22 03:54:34;;;;;;;41.28;34.22;;;;;;;14.36;95.40;96429.41;2072934;28;20044;-39
2022/07/22 03:55:35;;;;;;;42.60;35.08;;;;;;;14.37;95.04;96430.25;2056843;28;20050;-39
2022/07/22 03:56:37;;;;;;;41.95;37.42;;;;;;;14.37;94.80;96436.31;2064658;28;20492;-39
2022/07/22 03:57:38;;;;;;;43.22;37.88;;;;;;;14.38;95.46;96434.53;2064932;28;20053;-37
2022/07/22 03:58:47;;;;;;;;;;;;;;;14.39;95.10;96446.69;2065948;28;20053;-38
2022/07/22 03:59:48;;;;;;;48.08;36.97;;;;;;;14.39;95.15;96442.28;2064791;28;19921;-37
2022/07/22 04:00:49;;;;;;;42.67;38.03;;;;;;;14.40;95.41;96443.13;2064422;28;20057;-41
2022/07/22 04:01:51;;;;;;;43.70;36.30;;;;;;;14.42;94.83;96442.13;2064602;28;20046;-38
2022/07/22 04:02:52;;;;;;;47.22;38.97;;;;;;;14.44;95.32;96442.06;2065162;28;20038;-38
2022/07/22 04:04:03;;;;;;;46.53;38.53;;;;;;;14.44;95.43;96440.28;2064449;28;20554;-39
2022/07/22 04:05:08;;;;;;;45.10;38.80;;;;;;;14.49;95.40;96447.88;2065405;28;20492;-40
2022/07/22 04:06:09;;;;;;;45.83;38.67;;;;;;;14.49;95.37;96438.25;2064562;28;20058;-38
2022/07/22 04:07:20;;;;;;;44.75;38.80;;;;;;;14.49;95.17;96434.81;2059803;28;20493;-37
2022/07/22 04:08:21;;;;;;;45.97;37.65;;;;;;;14.49;95.16;96437.41;2072896;28;20506;-37
2022/07/22 04:09:23;;;;;;;41.80;37.15;;;;;;;14.47;94.48;96434.88;2072779;28;20049;-39
2022/07/22 04:10:24;;;;;;;43.30;36.88;;;;;;;14.48;94.29;96443.56;2072555;28;20052;-37
2022/07/22 04:11:26;;;;;;;44.75;38.38;;;;;;;14.43;94.23;96442.97;2056547;28;20509;-38
2022/07/22 04:12:27;;;;;;;44.03;36.53;;;;;;;14.41;93.95;96444.84;2065849;28;20053;-41
2022/07/22 04:13:45;;;;;;;42.58;34.63;;;;;;;14.45;94.01;96441.94;2065127;28;20046;-36
2022/07/22 04:14:46;;;;;;;40.78;36.08;;;;;;;14.43;93.81;96442.97;2067538;28;20452;-38
2022/07/22 04:15:48;;;;;;;43.20;35.33;;;;;;;14.44;93.78;96439.44;2064405;28;20062;-34
2022/07/22 04:16:49;;;;;;;39.75;35.40;;;;;;;14.45;93.85;96433.28;2064900;28;20050;-35
2022/07/22 04:17:50;;;;;;;38.95;34.78;;;;;;;14.48;93.41;96435.72;2064643;28;20547;-35
2022/07/22 04:18:51;;;;;;;39.50;33.85;;;;;;;14.52;93.34;96434.63;2073487;28;20049;-36
2022/07/22 04:20:04;;;;;;;43.17;34.47;;;;;;;14.48;93.39;96427.88;2080262;28;20048;-36
2022/07/22 04:21:22;;;;;;;37.92;33.80;;;;;;;14.52;93.09;96435.50;2077129;28;20050;-33
2022/07/22 04:22:27;;;;;;;41.50;33.10;;;;;;;14.55;93.30;96434.47;2067471;28;20037;-37
2022/07/22 04:23:29;;;;;;;34.05;30.27;;;;;;;14.63;92.79;96431.44;2072779;28;20535;-40
2022/07/22 04:24:42;;;;;;;39.25;32.88;;;;;;;14.63;92.48;96440.13;2071245;28;20045;-34
2022/07/22 04:25:44;;;;;;;38.35;33.38;;;;;;;14.62;92.30;96435.84;2056462;28;20441;-36
2022/07/22 04:26:46;;;;;;;38.50;32.78;;;;;;;14.65;92.36;96432.19;2064195;28;20053;-36
2022/07/22 04:27:47;;;;;;;33.92;29.50;;;;;;;14.75;92.00;96433.34;2071861;28;20057;-37
2022/07/22 04:28:48;;;;;;;37.28;31.85;;;;;;;14.76;91.63;96429.81;2064836;28;20046;-34
2022/07/22 04:29:50;;;;;;;35.25;31.40;;;;;;;14.83;91.61;96440.75;2069105;28;20048;-36
2022/07/22 04:30:51;;;;;;;36.70;31.92;;;;;;;14.83;91.46;96433.75;2072574;28;20050;-37
2022/07/22 04:31:53;;;;;;;34.75;29.00;;;;;;;14.88;91.22;96429.09;2056502;28;20050;-39
2022/07/22 04:32:55;;;;;;;36.95;31.08;;;;;;;14.89;91.86;96429.94;2064215;28;20057;-35
2022/07/22 04:33:57;;;;;;;33.63;29.88;;;;;;;14.96;91.57;96431.28;2064593;28;20439;-37
2022/07/22 04:34:58;;;;;;;33.85;30.27;;;;;;;14.98;90.80;96429.44;2056521;28;20055;-36
2022/07/22 04:36:00;;;;;;;38.15;29.98;;;;;;;14.94;90.93;96428.78;2048786;28;20058;-35
2022/07/22 04:37:01;;;;;;;35.42;30.50;;;;;;;14.98;91.29;96432.03;2064483;28;20077;-38
2022/07/22 04:38:06;;;;;;;35.72;31.00;;;;;;;14.99;90.29;96436.31;2065463;28;20062;-35
2022/07/22 04:39:08;;;;;;;36.03;31.23;;;;;;;15.01;90.65;96426.63;2073023;28;20045;-35
2022/07/22 04:40:12;;;;;;;35.33;31.52;;;;;;;15.05;90.82;96436.00;2079953;28;20054;-35
2022/07/22 04:41:13;;;;;;;35.35;28.75;;;;;;;15.12;91.04;96434.69;2072517;28;20061;-36
2022/07/22 04:42:14;;;;;;;33.58;29.48;;;;;;;15.21;90.22;96431.53;2072324;28;20053;-36
2022/07/22 04:43:17;;;;;;;31.05;27.65;;;;;;;15.25;89.77;96432.19;2064189;28;20039;-35
2022/07/22 04:44:18;;;;;;;35.63;29.50;;;;;;;15.22;89.19;96429.75;2057077;28;20059;-39
2022/07/22 04:45:20;;;;;;;33.25;28.58;;;;;;;15.24;89.45;96434.91;2056787;28;20452;-38
2022/07/22 04:46:21;;;;;;;33.80;30.13;;;;;;;15.25;89.57;96426.97;2064974;28;20042;-35